createdAt,value
2022-11-15T00:01:10.414Z,100.00
2022-11-15T00:03:38.044Z,100.00
2022-11-15T00:06:06.681Z,100.00
2022-11-15T00:08:34.830Z,100.00
2022-11-15T00:11:04.338Z,100.00
2022-11-15T00:13:32.691Z,98.18
2022-11-15T00:16:03.226Z,98.12
2022-11-15T00:18:31.913Z,98.72
2022-11-15T00:21:05.812Z,96.60
2022-11-15T00:23:33.744Z,95.34
2022-11-15T00:26:01.807Z,94.20
2022-11-15T00:28:29.458Z,95.62
2022-11-15T00:31:03.919Z,97.52
2022-11-15T00:33:32.876Z,97.60
2022-11-15T00:36:05.666Z,97.57
2022-11-15T00:38:34.683Z,96.83
2022-11-15T00:41:08.905Z,97.35
2022-11-15T00:43:37.674Z,94.84
2022-11-15T00:46:15.528Z,95.46
2022-11-15T00:48:43.139Z,93.98
2022-11-15T00:51:10.723Z,94.64
2022-11-15T00:53:38.302Z,93.50
2022-11-15T00:56:06.257Z,96.43
2022-11-15T00:58:34.095Z,95.27
2022-11-15T01:01:08.918Z,93.73
2022-11-15T01:03:38.745Z,93.83
2022-11-15T01:06:07.575Z,92.82
2022-11-15T01:08:35.645Z,91.70
2022-11-15T01:11:04.605Z,92.63
2022-11-15T01:13:33.949Z,92.21
2022-11-15T01:16:07.260Z,92.78
2022-11-15T01:18:34.893Z,91.72
2022-11-15T01:21:08.888Z,91.94
2022-11-15T01:23:36.687Z,92.93
2022-11-15T01:26:06.596Z,92.69
2022-11-15T01:28:35.959Z,93.69
2022-11-15T01:31:06.523Z,93.29
2022-11-15T01:33:36.732Z,92.59
2022-11-15T01:36:08.108Z,91.72
2022-11-15T01:38:36.304Z,92.33
2022-11-15T01:41:03.963Z,93.67
2022-11-15T01:43:34.206Z,92.33
2022-11-15T01:46:06.243Z,93.22
2022-11-15T01:48:35.334Z,92.08
2022-11-15T01:51:06.931Z,92.49
2022-11-15T01:53:39.228Z,91.48
2022-11-15T01:56:10.549Z,90.63
2022-11-15T01:58:39.055Z,90.51
2022-11-15T02:01:06.781Z,90.94
2022-11-15T02:03:43.759Z,90.17
2022-11-15T02:06:12.116Z,90.42
2022-11-15T02:08:41.041Z,90.51
2022-11-15T02:11:10.409Z,89.48
2022-11-15T02:13:38.655Z,91.22
2022-11-15T02:16:17.093Z,92.14
2022-11-15T02:18:51.130Z,93.46
2022-11-15T02:21:28.161Z,93.76
2022-11-15T02:24:13.876Z,93.91
2022-11-15T02:27:08.709Z,93.12
2022-11-15T02:29:54.919Z,93.64
2022-11-15T02:32:33.002Z,94.63
2022-11-15T02:35:09.287Z,92.65
2022-11-15T02:37:43.579Z,90.64
2022-11-15T02:40:19.273Z,90.38
2022-11-15T02:43:09.996Z,89.30
2022-11-15T02:45:41.783Z,90.24
2022-11-15T02:48:12.255Z,91.88
2022-11-15T02:50:40.294Z,89.74
2022-11-15T02:53:10.365Z,88.07
2022-11-15T02:55:40.122Z,88.40
2022-11-15T02:58:30.126Z,86.76
2022-11-15T03:01:06.228Z,88.04
2022-11-15T03:03:51.457Z,88.17
2022-11-15T03:06:29.100Z,88.73
2022-11-15T03:09:06.132Z,88.69
2022-11-15T03:11:39.413Z,88.20
2022-11-15T03:14:16.892Z,86.13
2022-11-15T03:16:49.962Z,86.59
2022-11-15T03:19:27.828Z,88.66
2022-11-15T03:21:57.569Z,87.07
2022-11-15T03:24:27.119Z,88.45
2022-11-15T03:26:56.910Z,88.26
2022-11-15T03:29:29.555Z,88.52
2022-11-15T03:32:02.706Z,88.84
2022-11-15T03:34:36.870Z,89.44
2022-11-15T03:37:06.355Z,88.98
2022-11-15T03:39:34.617Z,89.75
2022-11-15T03:42:16.027Z,92.79
2022-11-15T03:44:48.633Z,90.85
2022-11-15T03:47:21.622Z,90.15
2022-11-15T03:49:55.730Z,92.26
2022-11-15T03:52:24.243Z,92.11
2022-11-15T03:54:54.486Z,91.61
2022-11-15T03:57:22.333Z,92.77
2022-11-15T03:59:49.914Z,92.32
2022-11-15T04:02:17.640Z,93.69
2022-11-15T04:04:45.277Z,94.76
2022-11-15T04:07:14.562Z,93.49
2022-11-15T04:09:56.616Z,92.77
2022-11-15T04:12:31.702Z,90.27
2022-11-15T04:15:09.732Z,90.14
2022-11-15T04:17:39.747Z,89.64
2022-11-15T04:20:27.939Z,94.56
2022-11-15T04:23:15.571Z,92.74
2022-11-15T04:25:44.335Z,91.03
2022-11-15T04:28:12.701Z,92.40
2022-11-15T04:30:40.700Z,94.66
2022-11-15T04:33:08.489Z,92.22
2022-11-15T04:35:36.126Z,94.17
2022-11-15T04:38:06.400Z,93.40
2022-11-15T04:40:34.210Z,93.65
2022-11-15T04:43:03.815Z,92.59
2022-11-15T04:45:32.186Z,92.61
2022-11-15T04:47:59.753Z,92.98
2022-11-15T04:50:27.338Z,93.81
2022-11-15T04:52:56.143Z,93.05
2022-11-15T04:55:25.066Z,91.45
2022-11-15T04:58:01.050Z,92.53
2022-11-15T05:00:29.815Z,93.03
2022-11-15T05:03:15.211Z,92.73
2022-11-15T05:05:43.260Z,91.38
2022-11-15T05:08:10.848Z,92.32
2022-11-15T05:10:39.837Z,91.85
2022-11-15T05:13:07.414Z,90.97
2022-11-15T05:15:35.027Z,92.75
2022-11-15T05:18:02.675Z,93.37
2022-11-15T05:20:30.280Z,92.87
2022-11-15T05:22:57.907Z,93.11
2022-11-15T05:25:25.586Z,96.19
2022-11-15T05:27:54.990Z,95.89
2022-11-15T05:30:22.607Z,95.33
2022-11-15T05:32:50.825Z,93.88
2022-11-15T05:35:22.648Z,92.85
2022-11-15T05:37:50.676Z,94.05
2022-11-15T05:40:18.322Z,97.17
2022-11-15T05:42:47.361Z,98.78
2022-11-15T05:45:16.669Z,99.57
2022-11-15T05:47:45.530Z,100.00
2022-11-15T05:50:14.335Z,100.00
2022-11-15T05:52:42.111Z,100.00
2022-11-15T05:55:10.985Z,100.00
2022-11-15T05:57:38.642Z,100.00
2022-11-15T06:00:07.739Z,100.00
2022-11-15T06:02:37.058Z,100.00
2022-11-15T06:05:05.290Z,100.00
2022-11-15T06:07:33.071Z,100.00
2022-11-15T06:10:00.737Z,100.00
2022-11-15T06:12:28.312Z,100.00
2022-11-15T06:14:55.875Z,100.00
2022-11-15T06:17:23.479Z,100.00
2022-11-15T06:19:52.384Z,100.00
2022-11-15T06:22:19.994Z,100.00
2022-11-15T06:24:47.693Z,100.00
2022-11-15T06:27:15.601Z,100.00
2022-11-15T06:29:43.202Z,100.00
2022-11-15T06:32:10.946Z,100.00
2022-11-15T06:35:13.127Z,100.00
2022-11-15T06:37:42.303Z,100.00
2022-11-15T06:40:11.683Z,100.00
2022-11-15T06:42:39.274Z,100.00
2022-11-15T06:45:07.784Z,100.00
2022-11-15T06:47:35.453Z,100.00
2022-11-15T06:50:03.106Z,100.00
2022-11-15T06:52:33.445Z,100.00
2022-11-15T06:55:02.396Z,100.00
2022-11-15T06:57:29.962Z,100.00
2022-11-15T06:59:57.547Z,100.00
2022-11-15T07:02:25.201Z,100.00
2022-11-15T07:04:52.786Z,100.00
2022-11-15T07:07:20.489Z,100.00
2022-11-15T07:09:48.131Z,100.00
2022-11-15T07:12:17.102Z,100.00
2022-11-15T07:14:44.679Z,100.00
2022-11-15T07:17:12.256Z,98.77
2022-11-15T07:19:39.813Z,99.63
2022-11-15T07:22:07.447Z,100.00
2022-11-15T07:24:35.028Z,100.00
2022-11-15T07:27:02.612Z,99.43
2022-11-15T07:29:31.673Z,99.48
2022-11-15T07:31:59.966Z,99.55
2022-11-15T07:34:27.619Z,98.98
2022-11-15T07:36:55.182Z,99.18
2022-11-15T07:39:22.786Z,100.00
2022-11-15T07:42:10.335Z,100.00
2022-11-15T07:44:39.256Z,99.33
2022-11-15T07:47:06.843Z,100.00
2022-11-15T07:49:34.465Z,100.00
2022-11-15T07:52:02.064Z,100.00
2022-11-15T07:54:29.694Z,100.00
2022-11-15T07:56:59.200Z,100.00
2022-11-15T07:59:28.850Z,100.00
2022-11-15T08:01:58.014Z,99.75
2022-11-15T08:04:25.804Z,99.44
2022-11-15T08:06:53.424Z,100.00
2022-11-15T08:09:21.082Z,99.67
2022-11-15T08:11:48.643Z,99.26
2022-11-15T08:14:16.275Z,100.00
2022-11-15T08:16:43.986Z,100.00
2022-11-15T08:19:12.891Z,97.95
2022-11-15T08:21:40.603Z,99.49
2022-11-15T08:24:11.859Z,98.33
2022-11-15T08:26:40.446Z,98.25
2022-11-15T08:29:09.539Z,99.42
2022-11-15T08:31:38.264Z,99.09
2022-11-15T08:34:06.471Z,98.38
2022-11-15T08:36:43.256Z,97.52
2022-11-15T08:39:14.301Z,97.97
2022-11-15T08:41:41.990Z,98.48
2022-11-15T08:44:09.609Z,98.72
2022-11-15T08:46:37.311Z,98.28
2022-11-15T08:49:04.888Z,99.18
2022-11-15T08:51:32.535Z,98.15
2022-11-15T08:54:01.527Z,97.41
2022-11-15T08:56:29.122Z,96.62
2022-11-15T08:58:56.722Z,94.89
2022-11-15T09:01:24.790Z,95.14
2022-11-15T09:03:52.503Z,94.61
2022-11-15T09:06:20.208Z,94.72
2022-11-15T09:08:48.669Z,93.35
2022-11-15T09:11:21.067Z,92.41
2022-11-15T09:13:48.803Z,92.31
2022-11-15T09:16:16.428Z,92.18
2022-11-15T09:18:44.033Z,90.66
2022-11-15T09:21:11.918Z,89.65
2022-11-15T09:23:40.206Z,90.14
2022-11-15T09:26:08.051Z,91.89
2022-11-15T09:28:39.100Z,92.41
2022-11-15T09:31:07.847Z,93.30
2022-11-15T09:33:36.011Z,92.78
2022-11-15T09:36:06.240Z,94.06
2022-11-15T09:38:35.014Z,91.77
2022-11-15T09:41:27.968Z,89.29
2022-11-15T09:44:09.272Z,91.88
2022-11-15T09:46:47.837Z,92.78
2022-11-15T09:49:17.447Z,92.66
2022-11-15T09:51:48.566Z,92.24
2022-11-15T09:57:16.504Z,90.28
2022-11-15T10:00:23.888Z,91.64
2022-11-15T10:03:02.977Z,91.92
2022-11-15T10:05:31.094Z,91.88
2022-11-15T10:08:05.603Z,93.63
2022-11-15T10:10:41.368Z,92.60
2022-11-15T10:13:15.621Z,92.95
2022-11-15T10:15:48.663Z,91.87
2022-11-15T10:18:20.196Z,94.19
2022-11-15T10:20:55.079Z,91.86
2022-11-15T10:23:24.378Z,93.73
2022-11-15T10:25:54.987Z,94.88
2022-11-15T10:28:28.161Z,94.22
2022-11-15T10:30:59.241Z,91.97
2022-11-15T10:33:32.535Z,92.98
2022-11-15T10:36:20.927Z,94.64
2022-11-15T10:38:59.283Z,95.51
2022-11-15T10:41:40.867Z,94.44
2022-11-15T10:44:24.043Z,94.10
2022-11-15T10:47:22.255Z,94.21
2022-11-15T10:49:57.830Z,93.63
2022-11-15T10:52:26.201Z,94.50
2022-11-15T10:54:59.042Z,93.96
2022-11-15T10:57:30.593Z,93.23
2022-11-15T11:00:00.848Z,93.42
2022-11-15T11:02:33.765Z,93.50
2022-11-15T11:05:02.433Z,92.02
2022-11-15T11:07:32.751Z,91.29
2022-11-15T11:10:02.957Z,93.53
2022-11-15T11:12:33.839Z,91.91
2022-11-15T11:15:04.112Z,90.88
2022-11-15T11:17:52.081Z,90.49
2022-11-15T11:20:25.273Z,89.74
2022-11-15T11:23:04.557Z,91.36
2022-11-15T11:25:37.540Z,91.19
2022-11-15T11:28:17.088Z,91.01
2022-11-15T11:31:02.082Z,91.58
2022-11-15T11:33:35.249Z,91.96
2022-11-15T11:36:13.841Z,92.98
2022-11-15T11:38:56.731Z,90.14
2022-11-15T11:41:40.826Z,87.68
2022-11-15T11:44:26.646Z,85.16
2022-11-15T11:47:02.594Z,84.92
2022-11-15T11:49:41.033Z,88.52
2022-11-15T11:52:15.364Z,87.04
2022-11-15T11:54:51.087Z,85.89
2022-11-15T11:57:27.678Z,87.07
2022-11-15T12:00:00.529Z,86.53
2022-11-15T12:02:32.132Z,87.01
2022-11-15T12:05:09.823Z,87.49
2022-11-15T12:07:40.808Z,87.19
2022-11-15T12:10:20.891Z,86.58
2022-11-15T12:12:56.962Z,87.80
2022-11-15T12:15:28.005Z,87.47
2022-11-15T12:17:57.805Z,87.40
2022-11-15T12:20:30.363Z,86.66
2022-11-15T12:23:02.313Z,86.98
2022-11-15T12:25:33.633Z,86.16
2022-11-15T12:28:05.340Z,85.99
2022-11-15T12:30:46.114Z,85.49
2022-11-15T12:33:36.647Z,86.76
2022-11-15T12:36:07.597Z,87.51
2022-11-15T12:38:58.759Z,86.14
2022-11-15T12:41:28.169Z,86.30
2022-11-15T12:43:56.561Z,85.81
2022-11-15T12:47:04.934Z,85.76
2022-11-15T12:49:46.309Z,87.22
2022-11-15T12:52:16.256Z,86.74
2022-11-15T12:55:25.184Z,85.46
2022-11-15T12:57:54.075Z,85.70
2022-11-15T13:00:48.436Z,87.30
2022-11-15T13:03:37.248Z,87.31
2022-11-15T13:06:10.524Z,85.89
2022-11-15T13:08:51.861Z,84.52
2022-11-15T13:11:45.945Z,85.90
2022-11-15T13:14:44.466Z,86.25
2022-11-15T13:17:24.722Z,85.30
2022-11-15T13:20:00.143Z,84.99
2022-11-15T13:22:46.157Z,86.82
2022-11-15T13:25:41.904Z,86.92
2022-11-15T13:28:20.262Z,87.10
2022-11-15T13:30:53.516Z,87.47
2022-11-15T13:33:24.159Z,86.15
2022-11-15T13:35:54.694Z,84.19
2022-11-15T13:38:29.096Z,85.54
2022-11-15T13:41:00.466Z,86.88
2022-11-15T13:43:37.166Z,86.94
2022-11-15T13:46:15.103Z,86.02
2022-11-15T13:48:44.174Z,84.98
2022-11-15T13:51:20.473Z,85.13
2022-11-15T13:53:54.156Z,85.63
2022-11-15T13:56:23.718Z,84.43
2022-11-15T13:58:51.443Z,85.05
2022-11-15T14:01:22.134Z,85.25
2022-11-15T14:03:54.540Z,85.68
2022-11-15T14:06:25.377Z,86.05
2022-11-15T14:09:30.863Z,86.49
2022-11-15T14:12:00.347Z,88.51
2022-11-15T14:14:29.640Z,88.22
2022-11-15T14:16:59.256Z,87.21
2022-11-15T14:19:38.787Z,87.86
2022-11-15T14:22:14.788Z,85.97
2022-11-15T14:24:45.154Z,88.27
2022-11-15T14:27:35.008Z,87.56
2022-11-15T14:30:03.143Z,87.35
2022-11-15T14:32:39.476Z,85.26
2022-11-15T14:35:15.998Z,86.91
2022-11-15T14:37:43.757Z,87.05
2022-11-15T14:40:16.003Z,88.08
2022-11-15T14:42:47.045Z,89.76
2022-11-15T14:45:17.996Z,89.31
2022-11-15T14:47:46.102Z,89.19
2022-11-15T14:50:14.951Z,88.71
2022-11-15T14:52:43.874Z,85.85
2022-11-15T14:55:20.517Z,85.95
2022-11-15T14:57:50.257Z,88.61
2022-11-15T15:00:19.079Z,88.58
2022-11-15T15:02:48.402Z,89.07
2022-11-15T15:05:19.203Z,89.11
2022-11-15T15:07:47.550Z,90.24
2022-11-15T15:10:39.082Z,88.43
2022-11-15T15:13:07.659Z,87.41
2022-11-15T15:15:37.651Z,88.24
2022-11-15T15:18:06.642Z,86.86
2022-11-15T15:20:34.623Z,87.60
2022-11-15T15:23:02.488Z,87.30
2022-11-15T15:25:32.891Z,89.34
2022-11-15T15:28:01.427Z,88.15
2022-11-15T15:30:32.388Z,91.91
2022-11-15T15:33:00.128Z,90.83
2022-11-15T15:35:32.241Z,89.12
2022-11-15T15:38:00.722Z,89.46
2022-11-15T15:40:30.673Z,91.66
2022-11-15T15:42:58.776Z,91.66
2022-11-15T15:45:27.834Z,92.14
2022-11-15T15:47:57.245Z,90.78
2022-11-15T15:50:27.657Z,91.06
2022-11-15T15:52:57.803Z,90.26
2022-11-15T15:55:26.627Z,90.10
2022-11-15T15:57:54.431Z,93.51
2022-11-15T16:00:24.412Z,94.85
2022-11-15T16:02:52.587Z,90.52
2022-11-15T16:05:22.009Z,93.51
2022-11-15T16:07:50.076Z,92.95
2022-11-15T16:10:25.787Z,93.53
2022-11-15T16:12:54.646Z,94.62
2022-11-15T16:15:24.396Z,94.16
2022-11-15T16:17:54.147Z,94.51
2022-11-15T16:20:31.145Z,95.38
2022-11-15T16:23:01.132Z,92.17
2022-11-15T16:25:36.260Z,93.23
2022-11-15T16:28:03.996Z,93.64
2022-11-15T16:30:32.004Z,94.28
2022-11-15T16:32:59.911Z,93.93
2022-11-15T16:35:29.162Z,94.39
2022-11-15T16:37:57.121Z,93.47
2022-11-15T16:40:29.361Z,93.07
2022-11-15T16:42:57.969Z,94.96
2022-11-15T16:45:25.868Z,94.04
2022-11-15T16:47:54.913Z,94.73
2022-11-15T16:50:25.050Z,95.89
2022-11-15T16:52:55.892Z,91.31
2022-11-15T16:55:26.582Z,90.08
2022-11-15T16:57:55.172Z,92.37
2022-11-15T17:00:23.069Z,91.43
2022-11-15T17:02:52.509Z,93.18
2022-11-15T17:05:22.685Z,92.91
2022-11-15T17:07:54.248Z,92.75
2022-11-15T17:10:24.849Z,95.72
2022-11-15T17:12:53.573Z,95.99
2022-11-15T17:15:21.556Z,95.93
2022-11-15T17:17:53.791Z,96.25
2022-11-15T17:20:24.098Z,93.23
2022-11-15T17:22:52.933Z,94.54
2022-11-15T17:25:21.188Z,94.02
2022-11-15T17:27:50.559Z,93.73
2022-11-15T17:30:18.775Z,95.14
2022-11-15T17:32:47.858Z,97.39
2022-11-15T17:35:16.143Z,96.81
2022-11-15T17:37:44.379Z,95.51
2022-11-15T17:40:12.754Z,95.08
2022-11-15T17:42:41.970Z,97.54
2022-11-15T17:45:12.374Z,97.63
2022-11-15T17:47:40.193Z,97.47
2022-11-15T17:50:08.208Z,97.31
2022-11-15T17:52:35.984Z,96.89
2022-11-15T17:55:03.747Z,95.45
2022-11-15T17:57:31.475Z,95.62
2022-11-15T17:59:59.267Z,94.84
2022-11-15T18:02:28.455Z,97.38
2022-11-15T18:04:56.200Z,97.10
2022-11-15T18:07:24.035Z,95.98
2022-11-15T18:09:52.018Z,96.35
2022-11-15T18:12:19.924Z,96.83
2022-11-15T18:14:47.634Z,96.19
2022-11-15T18:17:15.380Z,96.02
2022-11-15T18:19:44.429Z,95.73
2022-11-15T18:22:12.218Z,96.63
2022-11-15T18:24:41.403Z,97.04
2022-11-15T18:27:09.377Z,96.97
2022-11-15T18:29:38.000Z,98.44
2022-11-15T18:32:11.599Z,97.97
2022-11-15T18:34:39.717Z,99.53
2022-11-15T18:37:08.970Z,99.31
2022-11-15T18:39:37.719Z,98.38
2022-11-15T18:42:05.772Z,99.66
2022-11-15T18:44:33.486Z,99.62
2022-11-15T18:47:01.418Z,99.71
2022-11-15T18:49:29.503Z,99.41
2022-11-15T18:51:57.261Z,99.78
2022-11-15T18:54:31.059Z,100.00
2022-11-15T18:56:59.574Z,100.00
2022-11-15T18:59:28.187Z,99.92
2022-11-15T19:01:56.896Z,100.00
2022-11-15T19:04:24.759Z,99.67
2022-11-15T19:06:53.489Z,100.00
2022-11-15T19:09:21.333Z,100.00
2022-11-15T19:11:51.508Z,100.00
2022-11-15T19:14:23.916Z,100.00
2022-11-15T19:16:52.315Z,100.00
2022-11-15T19:19:21.587Z,100.00
2022-11-15T19:21:49.602Z,100.00
2022-11-15T19:24:17.468Z,100.00
2022-11-15T19:26:45.761Z,100.00
2022-11-15T19:29:15.228Z,99.71
2022-11-15T19:31:43.289Z,100.00
2022-11-15T19:34:12.822Z,100.00
2022-11-15T19:36:42.582Z,100.00
2022-11-15T19:39:13.020Z,100.00
2022-11-15T19:41:42.894Z,100.00
2022-11-15T19:44:11.151Z,100.00
2022-11-15T19:46:41.183Z,100.00
2022-11-15T19:49:11.190Z,100.00
2022-11-15T19:51:41.598Z,100.00
2022-11-15T19:54:10.518Z,100.00
2022-11-15T19:56:39.700Z,100.00
2022-11-15T19:59:07.687Z,100.00
2022-11-15T20:01:38.755Z,100.00
2022-11-15T20:04:10.031Z,100.00
2022-11-15T20:06:42.007Z,100.00
2022-11-15T20:09:13.247Z,100.00
2022-11-15T20:11:41.010Z,100.00
2022-11-15T20:14:10.898Z,100.00
2022-11-15T20:16:38.682Z,100.00
2022-11-15T20:19:08.735Z,100.00
2022-11-15T20:21:37.584Z,100.00
2022-11-15T20:24:05.987Z,100.00
2022-11-15T20:26:33.739Z,100.00
2022-11-15T20:29:03.199Z,100.00
2022-11-15T20:31:31.479Z,100.00
2022-11-15T20:33:59.198Z,99.87
2022-11-15T20:36:28.647Z,99.09
2022-11-15T20:38:59.105Z,99.51
2022-11-15T20:41:27.466Z,100.00
2022-11-15T20:43:55.236Z,100.00
2022-11-15T20:46:23.027Z,100.00
2022-11-15T20:48:50.809Z,100.00
2022-11-15T20:51:19.886Z,100.00
2022-11-15T20:53:50.060Z,100.00
2022-11-15T20:56:19.824Z,100.00
2022-11-15T20:58:50.046Z,99.63
2022-11-15T21:01:23.109Z,100.00
2022-11-15T21:03:51.703Z,99.43
2022-11-15T21:06:20.952Z,100.00
2022-11-15T21:09:08.302Z,99.84
2022-11-15T21:11:53.610Z,100.00
2022-11-15T21:14:21.559Z,100.00
2022-11-15T21:16:49.315Z,100.00
2022-11-15T21:19:17.208Z,100.00
2022-11-15T21:21:44.990Z,98.86
2022-11-15T21:24:14.773Z,100.00
2022-11-15T21:26:42.898Z,98.32
2022-11-15T21:29:10.641Z,98.08
2022-11-15T21:31:38.375Z,99.20
2022-11-15T21:34:07.315Z,99.51
2022-11-15T21:36:35.095Z,100.00
2022-11-15T21:39:03.144Z,99.20
2022-11-15T21:41:32.445Z,99.12
2022-11-15T21:44:00.428Z,99.55
2022-11-15T21:46:29.216Z,98.73
2022-11-15T21:48:57.671Z,99.93
2022-11-15T21:51:26.379Z,98.67
2022-11-15T21:53:56.288Z,99.17
2022-11-15T21:56:24.241Z,99.42
2022-11-15T21:58:53.867Z,99.77
2022-11-15T22:01:39.617Z,98.81
2022-11-15T22:04:07.760Z,99.71
2022-11-15T22:06:36.190Z,99.14
2022-11-15T22:09:05.094Z,100.00
2022-11-15T22:11:33.502Z,100.00
2022-11-15T22:14:03.178Z,100.00
2022-11-15T22:16:30.934Z,98.05
2022-11-15T22:18:59.067Z,98.88
2022-11-15T22:21:26.951Z,97.89
2022-11-15T22:23:57.639Z,98.80
2022-11-15T22:26:25.499Z,100.00
2022-11-15T22:28:53.777Z,98.79
2022-11-15T22:31:23.082Z,100.00
2022-11-15T22:33:51.067Z,99.95
2022-11-15T22:36:18.972Z,98.02
2022-11-15T22:38:46.862Z,98.60
2022-11-15T22:41:14.742Z,100.00
2022-11-15T22:43:43.030Z,98.99
2022-11-15T22:46:11.608Z,100.00
2022-11-15T22:48:41.039Z,99.21
2022-11-15T22:51:09.343Z,98.95
2022-11-15T22:53:37.338Z,99.08
2022-11-15T22:56:07.015Z,99.89
2022-11-15T22:58:35.949Z,98.51
2022-11-15T23:01:05.967Z,100.00
2022-11-15T23:03:35.136Z,100.00
2022-11-15T23:06:06.636Z,99.74
2022-11-15T23:08:34.902Z,99.37
2022-11-15T23:11:20.854Z,100.00
2022-11-15T23:13:51.360Z,99.53
2022-11-15T23:16:34.207Z,99.78
2022-11-15T23:19:04.304Z,99.78
2022-11-15T23:21:52.660Z,98.63
2022-11-15T23:24:20.893Z,97.58
2022-11-15T23:26:50.993Z,99.24
2022-11-15T23:29:21.931Z,97.72
2022-11-15T23:32:07.651Z,99.33
2022-11-15T23:34:38.286Z,100.00
2022-11-15T23:37:09.408Z,98.87
2022-11-15T23:39:37.356Z,100.00
2022-11-15T23:42:09.121Z,99.68
2022-11-15T23:44:37.678Z,100.00
2022-11-15T23:47:05.990Z,100.00
2022-11-15T23:49:33.984Z,100.00
2022-11-15T23:52:01.856Z,100.00
2022-11-15T23:54:31.783Z,98.93
2022-11-15T23:56:59.837Z,100.00
2022-11-15T23:59:27.791Z,100.00
